createdAt,value
2017-08-11T00:00:24.144Z,27.55
2017-08-11T00:02:51.656Z,27.57
2017-08-11T00:05:19.233Z,27.54
2017-08-11T00:07:46.793Z,27.58
2017-08-11T00:10:14.349Z,27.59
2017-08-11T00:12:41.879Z,27.55
2017-08-11T00:15:09.430Z,27.60
2017-08-11T00:17:36.992Z,27.66
2017-08-11T00:20:05.358Z,27.68
2017-08-11T00:22:32.923Z,27.65
2017-08-11T00:25:00.420Z,27.68
2017-08-11T00:27:27.972Z,27.70
2017-08-11T00:29:55.534Z,27.72
2017-08-11T00:32:23.021Z,27.72
2017-08-11T00:34:50.565Z,27.73
2017-08-11T00:37:18.224Z,27.73
2017-08-11T00:39:45.721Z,27.76
2017-08-11T00:42:13.258Z,27.80
2017-08-11T00:44:40.756Z,27.77
2017-08-11T00:47:08.292Z,27.76
2017-08-11T00:49:35.814Z,27.77
2017-08-11T00:52:03.294Z,27.74
2017-08-11T00:54:30.786Z,27.70
2017-08-11T00:56:59.376Z,27.64
2017-08-11T00:59:26.966Z,27.44
2017-08-11T01:01:55.388Z,27.23
2017-08-11T01:04:23.003Z,27.03
2017-08-11T01:06:50.513Z,26.85
2017-08-11T01:09:18.002Z,26.69
2017-08-11T01:11:45.527Z,26.56
2017-08-11T01:14:13.103Z,26.44
2017-08-11T01:16:40.592Z,26.33
2017-08-11T01:19:08.191Z,26.22
2017-08-11T01:21:36.236Z,26.13
2017-08-11T01:24:03.719Z,26.05
2017-08-11T01:26:31.250Z,25.98
2017-08-11T01:28:58.818Z,25.90
2017-08-11T01:31:26.433Z,25.82
2017-08-11T01:33:54.368Z,25.74
2017-08-11T01:36:21.859Z,25.82
